createdAt,value
2019-01-25T08:35:09.459Z,68.70
2019-01-25T08:37:38.662Z,69.70
2019-01-25T08:40:09.306Z,70.30
2019-01-25T08:42:37.833Z,70.50
2019-01-25T08:45:08.282Z,70.70
2019-01-25T08:47:36.742Z,70.70
2019-01-25T08:50:08.948Z,68.20
2019-01-25T08:52:37.257Z,68.10
2019-01-25T08:55:06.058Z,68.10
2019-01-25T08:57:34.492Z,68.10
2019-01-25T09:00:04.689Z,68.20
2019-01-25T09:02:33.266Z,68.20
2019-01-25T09:05:01.720Z,68.20
2019-01-25T09:07:30.434Z,68.30
2019-01-25T09:09:58.808Z,68.10
2019-01-25T09:12:27.436Z,67.80
2019-01-25T09:14:55.868Z,67.10
2019-01-25T09:17:24.359Z,67.10
2019-01-25T09:19:52.905Z,66.90
2019-01-25T09:22:21.466Z,66.60
2019-01-25T09:24:49.837Z,66.60
2019-01-25T09:27:18.146Z,64.20
2019-01-25T09:29:46.605Z,63.80
2019-01-25T09:32:15.401Z,63.60
2019-01-25T09:34:43.817Z,63.50
2019-01-25T09:37:12.525Z,63.30
2019-01-25T09:39:41.291Z,62.20
2019-01-25T09:42:09.601Z,62.60
2019-01-25T09:45:03.012Z,62.40
2019-01-25T09:47:33.711Z,62.80
2019-01-25T09:50:02.371Z,62.90
2019-01-25T09:52:30.947Z,63.10
2019-01-25T09:54:59.365Z,63.20
2019-01-25T09:57:27.738Z,62.80
2019-01-25T09:59:56.288Z,62.90
2019-01-25T10:02:24.684Z,62.70
2019-01-25T10:04:54.043Z,62.40
2019-01-25T10:07:22.858Z,62.40
2019-01-25T10:09:51.314Z,62.30
2019-01-25T10:12:19.712Z,62.10
2019-01-25T10:14:48.176Z,61.60
2019-01-25T10:17:16.621Z,60.50
2019-01-25T10:19:45.113Z,60.40
2019-01-25T10:22:15.783Z,60.70
2019-01-25T10:24:44.259Z,60.80
2019-01-25T10:27:12.659Z,61.10
2019-01-25T10:29:41.069Z,61.20
2019-01-25T10:32:09.829Z,61.10
2019-01-25T10:34:40.725Z,60.80
2019-01-25T10:37:09.601Z,60.80
2019-01-25T10:39:38.402Z,60.70
2019-01-25T10:42:06.850Z,60.20
2019-01-25T10:44:35.202Z,60.30
2019-01-25T10:47:03.786Z,60.30
2019-01-25T10:49:32.213Z,58.60
2019-01-25T10:52:00.622Z,58.40
2019-01-25T10:54:29.023Z,58.60
2019-01-25T10:56:57.460Z,58.70
2019-01-25T10:59:26.021Z,58.80
2019-01-25T11:01:54.889Z,58.50
2019-01-25T11:04:23.856Z,58.50
2019-01-25T11:06:52.266Z,58.80
2019-01-25T11:09:20.781Z,58.30
2019-01-25T11:11:49.089Z,58.30
2019-01-25T11:14:17.549Z,58.30
2019-01-25T11:16:45.877Z,58.10
2019-01-25T11:19:14.309Z,58.00
2019-01-25T11:21:42.744Z,57.90
2019-01-25T11:24:11.272Z,57.80
2019-01-25T11:26:39.768Z,56.90
2019-01-25T11:29:08.341Z,57.30
2019-01-25T11:31:36.669Z,57.60
2019-01-25T11:34:05.117Z,57.80
2019-01-25T11:36:33.529Z,57.80
2019-01-25T11:39:01.919Z,58.00
2019-01-25T11:41:32.241Z,58.00
2019-01-25T11:44:00.540Z,57.80
2019-01-25T11:46:28.969Z,57.90
2019-01-25T11:48:57.405Z,58.00
2019-01-25T11:51:25.771Z,58.00
2019-01-25T11:53:54.329Z,57.90
2019-01-25T11:56:22.721Z,57.80
2019-01-25T11:58:52.447Z,57.70
2019-01-25T12:01:20.804Z,57.40
2019-01-25T12:03:49.198Z,57.30
2019-01-25T12:06:17.658Z,57.30
2019-01-25T12:08:46.077Z,57.10
2019-01-25T12:11:14.576Z,57.20
2019-01-25T12:13:42.974Z,57.20
2019-01-25T12:16:11.442Z,57.00
2019-01-25T12:18:39.890Z,56.90
2019-01-25T12:21:08.313Z,56.90
2019-01-25T12:23:36.808Z,56.80
2019-01-25T12:26:05.614Z,56.60
2019-01-25T12:28:34.008Z,55.70
2019-01-25T12:31:02.397Z,55.30
2019-01-25T12:33:30.962Z,55.40
2019-01-25T12:35:59.383Z,55.00
2019-01-25T12:38:27.734Z,55.90
2019-01-25T12:40:56.394Z,56.00
2019-01-25T12:43:26.774Z,56.10
2019-01-25T12:45:55.200Z,56.10
2019-01-25T12:48:23.585Z,55.80
2019-01-25T12:50:59.114Z,56.00
2019-01-25T12:53:27.656Z,55.60
2019-01-25T12:58:24.521Z,55.30
2019-01-25T13:00:52.845Z,55.40
2019-01-25T13:03:21.333Z,55.00
2019-01-25T13:05:49.874Z,54.70
2019-01-25T13:08:18.305Z,54.50
2019-01-25T13:10:46.834Z,54.00
2019-01-25T13:13:15.409Z,54.20
2019-01-25T13:15:43.858Z,54.40
2019-01-25T13:18:12.356Z,54.20
2019-01-25T13:20:42.997Z,53.10
2019-01-25T13:23:11.901Z,52.80
2019-01-25T13:25:40.369Z,52.00
2019-01-25T13:28:08.685Z,52.50
2019-01-25T13:30:37.222Z,52.20
2019-01-25T13:33:06.241Z,51.40
2019-01-25T13:35:34.708Z,50.20
2019-01-25T13:38:03.597Z,48.90
2019-01-25T13:40:32.660Z,47.50
2019-01-25T13:43:00.965Z,46.40
2019-01-25T13:45:30.000Z,45.70
2019-01-25T13:47:58.552Z,46.00
2019-01-25T13:50:27.883Z,47.00
2019-01-25T13:53:00.646Z,48.10
2019-01-25T13:55:29.381Z,48.90
2019-01-25T13:57:57.833Z,49.50
2019-01-25T14:00:31.109Z,49.40
2019-01-25T14:02:59.851Z,49.00
2019-01-25T14:05:28.561Z,49.30
2019-01-25T14:07:57.184Z,50.00
2019-01-25T14:10:28.375Z,50.50
2019-01-25T14:12:57.164Z,51.20
2019-01-25T14:15:25.791Z,51.90
2019-01-25T14:17:54.429Z,52.30
2019-01-25T14:20:24.832Z,52.60
2019-01-25T14:22:53.716Z,52.80
2019-01-25T14:25:22.345Z,53.10
2019-01-25T14:27:50.950Z,53.40
2019-01-25T14:30:32.352Z,53.50
2019-01-25T14:33:00.829Z,53.90
2019-01-25T14:35:29.568Z,54.20
2019-01-25T14:37:58.276Z,54.40
2019-01-25T14:40:26.790Z,54.70
2019-01-25T14:42:55.239Z,55.40
2019-01-25T14:45:24.153Z,55.00
2019-01-25T14:47:52.770Z,55.20
2019-01-25T14:50:22.369Z,55.20
2019-01-25T14:52:50.889Z,55.50
2019-01-25T14:55:19.528Z,55.40
2019-01-25T14:57:47.997Z,55.00
2019-01-25T15:00:16.630Z,54.70
2019-01-25T15:02:45.033Z,54.60
2019-01-25T15:05:15.826Z,54.90
2019-01-25T15:07:44.557Z,55.40
2019-01-25T15:10:16.769Z,55.80
2019-01-25T15:12:45.947Z,56.10
2019-01-25T15:15:14.598Z,56.30
2019-01-25T15:17:43.461Z,56.60
2019-01-25T15:20:18.295Z,56.90
2019-01-25T15:22:46.679Z,56.90
2019-01-25T15:25:15.392Z,57.20
2019-01-25T15:27:44.116Z,57.30
2019-01-25T15:30:15.921Z,57.50
2019-01-25T15:32:44.670Z,57.60
2019-01-25T15:35:14.333Z,57.70
2019-01-25T15:37:44.009Z,57.80
2019-01-25T15:40:13.384Z,57.90
2019-01-25T15:42:41.768Z,58.10
2019-01-25T15:45:11.617Z,58.10
2019-01-25T15:47:40.169Z,58.20
2019-01-25T15:50:16.786Z,58.30
2019-01-25T15:52:45.501Z,58.30
2019-01-25T15:55:14.393Z,58.40
2019-01-25T15:57:43.266Z,58.40
2019-01-25T16:00:13.731Z,58.60
2019-01-25T16:02:42.696Z,58.70
2019-01-25T16:05:14.240Z,58.90
2019-01-25T16:07:42.620Z,59.00
2019-01-25T16:10:14.613Z,59.10
2019-01-25T16:12:42.987Z,59.40
2019-01-25T16:15:14.407Z,59.40
2019-01-25T16:17:44.372Z,59.50
2019-01-25T16:20:13.820Z,59.90
2019-01-25T16:22:43.420Z,59.60
2019-01-25T16:25:17.501Z,59.70
2019-01-25T16:27:46.049Z,59.90
2019-01-25T16:30:25.516Z,59.90
2019-01-25T16:32:54.213Z,60.00
2019-01-25T16:35:22.527Z,60.20
2019-01-25T16:37:50.969Z,60.30
2019-01-25T16:40:20.346Z,60.60
2019-01-25T16:42:48.787Z,60.80
2019-01-25T16:45:20.420Z,61.10
2019-01-25T16:47:48.793Z,61.10
2019-01-25T16:50:23.642Z,61.40
2019-01-25T16:52:47.660Z,61.60
2019-01-25T16:55:16.381Z,61.80
2019-01-25T16:57:45.412Z,61.90
2019-01-25T17:00:24.317Z,62.10
2019-01-25T17:02:53.710Z,62.40
2019-01-25T17:05:22.309Z,62.60
2019-01-25T17:07:50.878Z,62.70
2019-01-25T17:10:19.294Z,62.90
2019-01-25T17:12:48.619Z,62.90
2019-01-25T17:15:17.384Z,63.10
2019-01-25T17:17:45.702Z,63.20
2019-01-25T17:20:19.159Z,63.30
2019-01-25T17:22:45.195Z,63.70
2019-01-25T17:25:13.877Z,63.80
2019-01-25T17:27:42.373Z,63.80
2019-01-25T17:30:22.575Z,63.80
2019-01-25T17:32:52.154Z,63.80
2019-01-25T17:35:21.719Z,63.80
2019-01-25T17:37:50.361Z,63.70
2019-01-25T17:40:21.623Z,63.60
2019-01-25T17:42:52.578Z,63.70
2019-01-25T17:45:21.783Z,64.00
2019-01-25T17:47:50.480Z,64.00
2019-01-25T17:50:19.205Z,64.00
2019-01-25T17:52:47.865Z,64.00
2019-01-25T17:55:17.025Z,64.10
2019-01-25T17:57:45.591Z,64.10
2019-01-25T18:00:30.344Z,64.10
2019-01-25T18:02:58.969Z,64.10
2019-01-25T18:05:28.530Z,64.10
2019-01-25T18:07:58.210Z,64.10
2019-01-25T18:10:26.665Z,64.30
2019-01-25T18:12:55.005Z,64.20
2019-01-25T18:15:23.725Z,64.10
2019-01-25T18:17:52.143Z,64.20
2019-01-25T18:20:20.824Z,64.10
2019-01-25T18:22:49.438Z,64.10
2019-01-25T18:25:22.113Z,64.20
2019-01-25T18:27:54.593Z,64.20
2019-01-25T18:30:30.184Z,64.30
2019-01-25T18:32:58.729Z,64.40
2019-01-25T18:35:27.169Z,64.40
2019-01-25T18:37:55.926Z,64.40
2019-01-25T18:40:24.366Z,64.50
2019-01-25T18:42:53.504Z,64.50
2019-01-25T18:45:22.709Z,64.70
2019-01-25T18:47:51.248Z,64.60
2019-01-25T18:50:19.766Z,64.70
2019-01-25T18:52:48.248Z,64.80
2019-01-25T18:55:18.396Z,64.90
2019-01-25T18:57:47.466Z,65.00
2019-01-25T19:00:18.071Z,65.10
2019-01-25T19:02:47.165Z,65.30
2019-01-25T19:05:16.972Z,65.40
2019-01-25T19:07:45.476Z,65.60
2019-01-25T19:10:17.068Z,65.60
2019-01-25T19:12:45.590Z,65.70
2019-01-25T19:15:16.419Z,65.80
2019-01-25T19:17:44.733Z,66.00
2019-01-25T19:20:14.017Z,66.20
2019-01-25T19:22:42.344Z,66.30
2019-01-25T19:25:11.101Z,66.40
2019-01-25T19:27:39.890Z,66.50
2019-01-25T19:30:20.546Z,66.60
2019-01-25T19:32:49.093Z,66.60
2019-01-25T19:35:17.771Z,66.70
2019-01-25T19:37:46.278Z,66.90
2019-01-25T19:40:15.926Z,66.90
2019-01-25T19:42:44.518Z,67.10
2019-01-25T19:45:16.467Z,67.00
2019-01-25T19:47:44.918Z,67.20
2019-01-25T19:50:15.190Z,67.20
2019-01-25T19:52:43.921Z,67.40
2019-01-25T19:55:17.990Z,67.50
2019-01-25T19:57:47.639Z,67.60
2019-01-25T20:00:19.818Z,67.80
2019-01-25T20:02:48.393Z,67.90
2019-01-25T20:05:18.874Z,68.10
2019-01-25T20:07:47.457Z,68.30
2019-01-25T20:10:16.465Z,68.80
2019-01-25T20:12:45.165Z,68.90
2019-01-25T20:15:19.383Z,69.00
2019-01-25T20:17:45.336Z,69.20
2019-01-25T20:20:19.669Z,69.40
2019-01-25T20:22:48.293Z,69.50
2019-01-25T20:25:16.905Z,69.80
2019-01-25T20:27:45.465Z,69.80
2019-01-25T20:30:17.634Z,69.90
2019-01-25T20:32:46.608Z,70.00
2019-01-25T20:35:16.971Z,70.20
2019-01-25T20:37:45.747Z,70.30
2019-01-25T20:40:15.197Z,70.40
2019-01-25T20:42:44.596Z,70.60
2019-01-25T20:45:15.777Z,70.60
2019-01-25T20:47:44.418Z,70.70
2019-01-25T20:50:15.935Z,70.90
2019-01-25T20:52:44.765Z,70.70
2019-01-25T20:55:15.441Z,70.70
2019-01-25T20:57:43.968Z,70.80
2019-01-25T21:00:15.807Z,70.80
2019-01-25T21:02:44.605Z,70.70
2019-01-25T21:05:13.705Z,70.80
2019-01-25T21:07:42.770Z,70.90
2019-01-25T21:10:13.889Z,71.00
2019-01-25T21:12:42.821Z,71.10
2019-01-25T21:15:12.780Z,71.20
2019-01-25T21:17:41.374Z,71.30
2019-01-25T21:20:12.748Z,71.30
2019-01-25T21:22:41.333Z,71.40
2019-01-25T21:25:10.076Z,71.40
2019-01-25T21:27:39.732Z,72.20
2019-01-25T21:30:11.870Z,72.50
2019-01-25T21:32:43.254Z,71.40
2019-01-25T21:35:15.009Z,71.40
2019-01-25T21:37:45.213Z,71.40
2019-01-25T21:40:16.397Z,71.50
2019-01-25T21:42:45.708Z,71.40
2019-01-25T21:45:16.997Z,71.40
2019-01-25T21:47:45.917Z,72.20
2019-01-25T21:50:21.369Z,71.40
2019-01-25T21:52:52.081Z,71.60
2019-01-25T21:55:21.053Z,71.50
2019-01-25T21:57:49.645Z,71.50
2019-01-25T22:00:23.929Z,71.60
2019-01-25T22:02:52.269Z,71.80
2019-01-25T22:05:21.125Z,71.70
2019-01-25T22:07:49.900Z,71.80
2019-01-25T22:10:30.234Z,71.60
2019-01-25T22:12:58.741Z,71.60
2019-01-25T22:15:27.345Z,71.60
2019-01-25T22:17:55.850Z,72.40
2019-01-25T22:20:26.837Z,71.50
2019-01-25T22:22:55.351Z,71.40
2019-01-25T22:25:24.126Z,71.40
2019-01-25T22:27:54.210Z,71.40
2019-01-25T22:30:24.085Z,71.30
2019-01-25T22:32:52.500Z,71.30
2019-01-25T22:35:21.232Z,71.30
2019-01-25T22:37:49.703Z,71.30
2019-01-25T22:40:24.397Z,71.40
2019-01-25T22:42:53.362Z,71.20
2019-01-25T22:45:24.268Z,71.20
2019-01-25T22:47:52.765Z,72.00
2019-01-25T22:50:23.269Z,71.10
2019-01-25T22:52:56.234Z,71.10
2019-01-25T22:55:25.673Z,71.10
2019-01-25T22:57:54.311Z,71.10
2019-01-25T23:00:51.009Z,71.00
2019-01-25T23:03:32.819Z,71.90
2019-01-25T23:06:29.453Z,70.90
2019-01-25T23:09:01.374Z,70.90
2019-01-25T23:11:31.885Z,70.90
2019-01-25T23:14:00.426Z,70.90
2019-01-25T23:16:28.902Z,70.90
2019-01-25T23:18:57.318Z,70.80
2019-01-25T23:21:25.860Z,70.90
2019-01-25T23:23:55.567Z,70.90
2019-01-25T23:26:24.093Z,70.90
2019-01-25T23:28:52.469Z,70.90
2019-01-25T23:31:21.065Z,70.90
2019-01-25T23:33:49.489Z,70.90
2019-01-25T23:36:18.357Z,70.90
2019-01-25T23:38:46.765Z,71.00
2019-01-25T23:41:15.585Z,71.10
2019-01-25T23:43:44.137Z,71.10
2019-01-25T23:46:13.926Z,71.10
2019-01-25T23:48:43.729Z,71.20
2019-01-25T23:51:12.204Z,71.20
2019-01-25T23:53:40.585Z,71.20
2019-01-25T23:56:08.897Z,71.30
2019-01-25T23:58:38.264Z,71.30
